Time;durP1;ratioP1;P1;durP2;ratioP2;P2;SDS_P1;SDS_P2;PMS_P1;PMS_P2;Temp;Humidity;BMP_temperature;BMP_pressure;BME280_temperature;BME280_humidity;BME280_pressure;Samples;Min_cycle;Max_cycle;Signal;HPM_P1;HPM_P2
2022/10/01 00:01:17;;;;;;;15.55;11.82;;;;;;;14.77;86.20;99655.19;4468845;32;34757;-73
2022/10/01 00:03:46;;;;;;;14.73;11.07;;;;;;;14.97;85.75;99662.47;4468457;32;33122;-73
2022/10/01 00:06:19;;;;;;;12.23;8.82;;;;;;;15.37;83.35;99742.63;4468747;32;34772;-73
2022/10/01 00:08:47;;;;;;;13.23;8.65;;;;;;;15.64;81.52;99793.38;4468429;32;34212;-74
2022/10/01 00:11:21;;;;;;;15.00;10.38;;;;;;;14.77;86.77;99748.06;4467474;32;33911;-77
2022/10/01 00:13:49;;;;;;;17.05;15.25;;;;;;;14.97;85.71;99680.78;4467719;32;33590;-73
2022/10/01 00:16:19;;;;;;;16.00;12.75;;;;;;;15.20;83.92;99676.56;4473828;32;34759;-74
2022/10/01 00:18:47;;;;;;;17.17;13.05;;;;;;;15.21;84.54;99661.81;4483942;32;34788;-73
2022/10/01 00:21:18;;;;;;;17.40;12.57;;;;;;;15.17;84.34;99660.75;4482830;32;33650;-73
2022/10/01 00:23:45;;;;;;;17.55;15.43;;;;;;;15.53;82.92;99664.09;4484071;32;33115;-73
2022/10/01 00:26:15;;;;;;;17.77;14.85;;;;;;;15.56;82.04;99671.72;4483951;32;34078;-73
2022/10/01 00:28:45;;;;;;;17.67;14.75;;;;;;;15.55;82.52;99688.41;4483169;32;34410;-74
2022/10/01 00:31:14;;;;;;;18.33;16.35;;;;;;;15.37;82.77;99682.47;4483279;32;33648;-74
2022/10/01 00:33:42;;;;;;;19.70;15.02;;;;;;;15.11;85.13;99676.34;4484015;32;33403;-74
2022/10/01 00:36:10;;;;;;;17.17;15.00;;;;;;;15.55;82.24;99672.84;4483723;32;33993;-73
2022/10/01 00:38:41;;;;;;;16.20;14.43;;;;;;;15.67;81.58;99663.44;4482604;32;34270;-73
2022/10/01 00:41:09;;;;;;;15.52;13.73;;;;;;;15.82;81.11;99670.75;4482612;32;34190;-73
2022/10/01 00:43:43;;;;;;;15.27;13.40;;;;;;;16.27;78.12;99679.69;4484047;32;33805;-73
2022/10/01 00:46:16;;;;;;;16.37;13.70;;;;;;;15.90;80.20;99678.34;4468757;32;34713;-73
2022/10/01 00:48:57;;;;;;;14.87;13.07;;;;;;;16.40;77.75;99676.25;4483772;32;34077;-73
2022/10/01 00:51:28;;;;;;;16.73;14.82;;;;;;;16.26;77.87;99672.56;4483472;32;33579;-73
2022/10/01 00:54:01;;;;;;;19.75;14.20;;;;;;;15.93;79.40;99673.13;4483417;32;34273;-74
2022/10/01 00:56:29;;;;;;;16.12;14.43;;;;;;;15.79;80.25;99670.22;4482261;32;33769;-74
2022/10/01 00:58:57;;;;;;;16.35;14.07;;;;;;;15.82;80.19;99659.81;4483513;32;34303;-74
2022/10/01 01:01:25;;;;;;;17.70;15.55;;;;;;;15.54;81.21;99662.97;4481566;32;33987;-74
2022/10/01 01:03:53;;;;;;;18.00;15.52;;;;;;;15.53;81.60;99661.34;4482246;32;34292;-74
2022/10/01 01:06:21;;;;;;;18.05;14.40;;;;;;;15.72;80.82;99663.44;4482406;32;33709;-73
2022/10/01 01:08:54;;;;;;;16.67;13.95;;;;;;;15.77;80.54;99660.69;4483233;32;34965;-74
2022/10/01 01:11:44;;;;;;;15.10;13.52;;;;;;;15.91;79.90;99661.62;4483488;32;33743;-73
2022/10/01 01:14:18;;;;;;;16.08;13.90;;;;;;;16.20;78.59;99672.63;4483437;32;34462;-74
2022/10/01 01:16:51;;;;;;;16.17;13.98;;;;;;;16.24;78.02;99666.56;4481416;32;33754;-73
2022/10/01 01:19:46;;;;;;;15.30;13.50;;;;;;;16.24;78.28;99672.03;4481808;32;33827;-73
2022/10/01 01:22:14;;;;;;;15.45;13.85;;;;;;;16.48;76.73;99672.06;4481840;32;33486;-73
2022/10/01 01:24:47;;;;;;;16.52;14.40;;;;;;;16.46;76.23;99668.78;4482066;32;33304;-74
2022/10/01 01:27:24;;;;;;;18.67;13.98;;;;;;;16.21;77.38;99670.69;4482117;32;34660;-73
2022/10/01 01:30:00;;;;;;;15.93;12.93;;;;;;;16.04;78.40;99673.84;4481738;32;34308;-74
2022/10/01 01:32:45;;;;;;;15.63;13.30;;;;;;;16.32;77.37;99676.88;4481825;32;33979;-76
2022/10/01 01:35:18;;;;;;;15.73;14.02;;;;;;;16.30;77.42;99677.16;4481686;32;33928;-75
2022/10/01 01:37:51;;;;;;;17.30;15.20;;;;;;;16.16;77.77;99668.00;4482054;32;33717;-74
2022/10/01 01:40:20;;;;;;;16.67;14.32;;;;;;;15.93;78.90;99666.84;4484170;32;34187;-73
2022/10/01 01:42:48;;;;;;;17.37;14.27;;;;;;;16.22;77.73;99674.22;4485278;32;33920;-73
2022/10/01 01:45:22;;;;;;;16.05;14.35;;;;;;;16.15;77.78;99675.38;4473466;32;33612;-73
2022/10/01 01:47:53;;;;;;;16.05;13.65;;;;;;;16.07;78.29;99667.81;4468170;32;34838;-74
2022/10/01 01:50:24;;;;;;;17.12;14.00;;;;;;;16.12;77.96;99659.53;4468545;32;34909;-74
2022/10/01 01:52:53;;;;;;;15.23;13.65;;;;;;;15.82;79.31;99657.06;4468402;32;33626;-79
2022/10/01 01:55:24;;;;;;;16.55;14.77;;;;;;;15.96;78.68;99658.87;4469465;32;34305;-79
2022/10/01 01:57:53;;;;;;;18.27;16.08;;;;;;;15.43;82.42;99649.66;4469259;32;34871;-74
2022/10/01 02:00:21;;;;;;;17.65;15.63;;;;;;;15.44;82.49;99640.34;4467818;32;33884;-76
2022/10/01 02:02:51;;;;;;;19.50;16.35;;;;;;;15.10;84.16;99641.94;4476515;32;34644;-78
2022/10/01 02:05:23;;;;;;;18.23;16.00;;;;;;;15.12;84.71;99644.38;4483413;32;33980;-79
2022/10/01 02:08:18;;;;;;;17.83;15.77;;;;;;;15.51;82.61;99632.66;4482934;32;34823;-74
2022/10/01 02:10:55;;;;;;;18.87;15.50;;;;;;;15.49;82.87;99630.22;4482741;32;32875;-79
2022/10/01 02:13:30;;;;;;;20.37;16.20;;;;;;;15.52;82.57;99618.69;4479858;32;33923;-77
2022/10/01 02:16:17;;;;;;;21.73;17.73;;;;;;;15.16;85.06;99621.69;4479817;32;34423;-72
2022/10/01 02:18:53;;;;;;;18.15;16.27;;;;;;;15.24;85.32;99631.19;4481221;32;34340;-73
2022/10/01 02:21:37;;;;;;;18.95;15.32;;;;;;;15.67;82.13;99647.84;4479938;32;34862;-73
2022/10/01 02:24:13;;;;;;;16.50;14.57;;;;;;;15.65;82.29;99654.72;4482044;32;33434;-81
2022/10/01 02:26:42;;;;;;;17.55;15.70;;;;;;;15.94;80.87;99657.53;4483472;32;33305;-73
2022/10/01 02:29:13;;;;;;;17.75;15.43;;;;;;;15.89;80.76;99652.09;4479801;32;32274;-74
2022/10/01 02:31:40;;;;;;;17.55;15.65;;;;;;;15.61;81.64;99642.69;4478111;32;34054;-73
2022/10/01 02:34:09;;;;;;;16.58;14.77;;;;;;;15.73;81.48;99644.00;4483397;32;33513;-73
2022/10/01 02:36:40;;;;;;;21.37;15.32;;;;;;;16.00;79.79;99650.87;4480777;32;33490;-74
2022/10/01 02:39:09;;;;;;;18.37;15.68;;;;;;;15.46;82.23;99654.56;4483083;32;34744;-74
2022/10/01 02:41:36;;;;;;;17.62;15.85;;;;;;;15.49;82.77;99649.34;4482163;32;34151;-74
2022/10/01 02:44:10;;;;;;;19.05;16.65;;;;;;;15.84;80.38;99658.41;4482912;32;34114;-76
2022/10/01 02:46:44;;;;;;;17.12;15.38;;;;;;;15.79;80.59;99656.53;4483012;32;33344;-82
2022/10/01 02:49:13;;;;;;;19.30;16.27;;;;;;;15.22;83.18;99657.97;4484636;32;34124;-81
2022/10/01 02:51:53;;;;;;;18.80;16.58;;;;;;;15.76;81.21;99659.84;4484994;32;35167;-81
2022/10/01 02:54:36;;;;;;;18.62;15.57;;;;;;;15.54;82.65;99660.25;4478461;32;33661;-80
2022/10/01 02:57:21;;;;;;;19.02;17.05;;;;;;;15.89;80.24;99663.03;4474872;32;33568;-75
2022/10/01 03:00:00;;;;;;;19.02;16.98;;;;;;;15.83;80.57;99666.91;4473414;32;34636;-74
2022/10/01 03:02:30;;;;;;;18.77;16.23;;;;;;;15.55;82.80;99663.78;4469283;32;35683;-79
2022/10/01 03:04:59;;;;;;;18.33;16.08;;;;;;;15.21;84.51;99664.56;4467806;32;33965;-84
2022/10/01 03:07:29;;;;;;;18.00;15.20;;;;;;;15.54;82.60;99657.50;4468950;32;33386;-80
2022/10/01 03:09:56;;;;;;;17.90;15.48;;;;;;;15.42;83.60;99659.78;4467816;32;34884;-75
2022/10/01 03:12:24;;;;;;;17.12;15.05;;;;;;;15.60;82.49;99661.03;4484229;32;34893;-79
2022/10/01 03:14:52;;;;;;;17.23;15.07;;;;;;;15.84;81.24;99641.19;4484595;32;34130;-77
2022/10/01 03:17:20;;;;;;;16.02;14.32;;;;;;;15.50;83.04;99645.50;4484752;32;33526;-75
2022/10/01 03:19:47;;;;;;;17.50;14.75;;;;;;;16.12;79.83;99650.53;4484686;32;34560;-82
2022/10/01 03:22:21;;;;;;;17.95;14.55;;;;;;;15.55;83.16;99658.31;4484857;32;33277;-75
2022/10/01 03:24:50;;;;;;;16.70;14.90;;;;;;;15.24;85.53;99660.44;4484700;32;33790;-74
2022/10/01 03:27:18;;;;;;;17.25;14.57;;;;;;;15.46;84.14;99677.25;4484818;32;34196;-75
2022/10/01 03:29:46;;;;;;;16.80;15.00;;;;;;;15.70;82.47;99685.59;4484641;32;34413;-75
2022/10/01 03:32:14;;;;;;;17.12;15.23;;;;;;;15.74;82.32;99708.56;4483451;32;33752;-81
2022/10/01 03:34:41;;;;;;;18.33;15.07;;;;;;;15.15;85.02;99693.81;4484757;32;34120;-80
2022/10/01 03:37:08;;;;;;;17.15;14.50;;;;;;;15.47;83.81;99703.50;4484879;32;33405;-77
2022/10/01 03:39:36;;;;;;;16.45;14.15;;;;;;;15.14;86.15;99697.66;4484530;32;34066;-76
2022/10/01 03:42:04;;;;;;;15.65;13.95;;;;;;;15.04;86.51;99708.62;4484906;32;34783;-79
2022/10/01 03:44:32;;;;;;;14.90;13.18;;;;;;;15.57;83.54;99695.25;4484355;32;33995;-75
2022/10/01 03:47:00;;;;;;;14.80;13.00;;;;;;;15.12;86.43;99686.19;4483450;32;33128;-81
2022/10/01 03:49:27;;;;;;;16.52;13.55;;;;;;;15.39;84.13;99676.75;4484707;32;34393;-74
2022/10/01 03:51:55;;;;;;;15.18;13.50;;;;;;;15.69;82.32;99686.66;4484628;32;34071;-81
2022/10/01 03:54:24;;;;;;;16.75;13.93;;;;;;;15.52;83.68;99692.53;4484321;32;34641;-77
2022/10/01 03:56:51;;;;;;;16.12;14.02;;;;;;;14.99;86.77;99678.59;4484152;32;33991;-74
2022/10/01 03:59:19;;;;;;;15.90;13.23;;;;;;;15.49;83.81;99673.97;4484639;32;33520;-77
2022/10/01 04:01:47;;;;;;;14.63;13.00;;;;;;;15.72;82.20;99666.16;4483829;32;34943;-76
2022/10/01 04:04:15;;;;;;;17.02;12.68;;;;;;;15.35;83.76;99651.88;4484421;32;33980;-74
2022/10/01 04:06:42;;;;;;;14.55;12.90;;;;;;;15.28;85.46;99653.31;4484306;32;33582;-76
2022/10/01 04:09:09;;;;;;;15.20;13.30;;;;;;;15.65;83.02;99657.44;4483764;32;34464;-73
2022/10/01 04:11:38;;;;;;;15.77;13.52;;;;;;;14.61;89.82;99645.41;4484341;32;33941;-77
2022/10/01 04:14:05;;;;;;;13.48;11.98;;;;;;;14.84;87.83;99643.97;4484398;32;33902;-74
2022/10/01 04:16:35;;;;;;;14.45;12.95;;;;;;;15.45;84.53;99653.75;4484069;32;34196;-73
2022/10/01 04:19:03;;;;;;;15.43;13.77;;;;;;;15.63;83.05;99651.44;4484184;32;34652;-74
2022/10/01 04:21:31;;;;;;;15.43;13.00;;;;;;;15.53;84.01;99649.59;4483152;32;33997;-75
2022/10/01 04:23:59;;;;;;;12.95;9.43;;;;;;;15.53;83.54;99657.81;4484009;32;33701;-75
2022/10/01 04:26:27;;;;;;;13.30;9.57;;;;;;;15.23;85.97;99653.34;4484326;32;33621;-73
2022/10/01 04:28:54;;;;;;;12.63;9.20;;;;;;;15.10;86.01;99641.94;4483850;32;33989;-75
2022/10/01 04:31:25;;;;;;;11.80;8.80;;;;;;;15.34;85.17;99650.25;4484054;32;33958;-74
2022/10/01 04:33:55;;;;;;;16.52;9.73;;;;;;;15.34;84.76;99660.38;4484132;32;33760;-74
2022/10/01 04:36:23;;;;;;;12.07;8.77;;;;;;;15.46;84.01;99651.81;4482490;32;33837;-77
2022/10/01 04:38:55;;;;;;;10.98;7.82;;;;;;;15.44;83.36;99643.91;4483640;32;33696;-74
2022/10/01 04:41:31;;;;;;;8.98;6.25;;;;;;;15.53;83.49;99653.16;4483348;32;34094;-79
2022/10/01 04:44:00;;;;;;;9.00;6.53;;;;;;;15.71;82.38;99648.94;4484131;32;34343;-74
2022/10/01 04:46:28;;;;;;;11.50;7.30;;;;;;;15.50;83.56;99655.63;4484342;32;33514;-75
2022/10/01 04:48:57;;;;;;;9.48;6.30;;;;;;;14.90;87.05;99661.97;4482586;32;34390;-75
2022/10/01 04:51:24;;;;;;;9.65;7.12;;;;;;;14.67;88.87;99657.16;4483921;32;35037;-74
2022/10/01 04:53:52;;;;;;;9.93;6.87;;;;;;;15.28;85.53;99651.37;4483934;32;34769;-84
2022/10/01 04:56:19;;;;;;;11.15;6.87;;;;;;;15.87;81.55;99657.03;4478980;32;33197;-77
2022/10/01 04:58:48;;;;;;;9.25;6.15;;;;;;;15.39;84.52;99657.59;4479718;32;33954;-77
2022/10/01 05:01:15;;;;;;;8.52;6.30;;;;;;;15.10;85.96;99663.78;4483639;32;34175;-76
2022/10/01 05:03:43;;;;;;;9.68;7.30;;;;;;;15.65;83.31;99671.94;4483157;32;34086;-74
2022/10/01 05:06:10;;;;;;;18.80;11.85;;;;;;;15.38;84.90;99673.19;4483366;32;33299;-73
2022/10/01 05:08:37;;;;;;;13.73;8.75;;;;;;;15.14;86.72;99683.16;4482769;32;33621;-74
2022/10/01 05:11:05;;;;;;;13.07;8.73;;;;;;;16.24;79.92;99707.62;4482996;32;33935;-77
2022/10/01 05:13:32;;;;;;;10.60;7.37;;;;;;;16.36;78.81;99719.00;4483749;32;33844;-75
2022/10/01 05:16:01;;;;;;;11.25;7.30;;;;;;;15.93;81.02;99718.81;4484689;32;33559;-72
2022/10/01 05:18:29;;;;;;;14.93;11.10;;;;;;;15.77;82.07;99707.97;4484691;32;34868;-76
2022/10/01 05:20:56;;;;;;;10.00;6.78;;;;;;;15.73;82.34;99711.56;4485574;32;33708;-78
2022/10/01 05:23:24;;;;;;;10.07;7.30;;;;;;;16.28;80.06;99717.69;4485766;32;34693;-74
2022/10/01 05:25:51;;;;;;;10.73;6.62;;;;;;;15.62;83.49;99705.31;4485271;32;34333;-73
2022/10/01 05:28:19;;;;;;;8.98;6.75;;;;;;;15.12;87.14;99699.84;4484592;32;34396;-73
2022/10/01 05:30:49;;;;;;;10.48;7.55;;;;;;;15.11;88.14;99692.75;4485375;32;34970;-80
2022/10/01 05:33:17;;;;;;;10.43;7.62;;;;;;;15.24;87.36;99691.31;4484228;32;34400;-81
2022/10/01 05:35:45;;;;;;;9.88;7.12;;;;;;;15.43;86.08;99683.28;4485028;32;34615;-79
2022/10/01 05:38:12;;;;;;;11.63;7.20;;;;;;;15.30;86.78;99678.44;4484571;32;34583;-77
2022/10/01 05:40:44;;;;;;;10.15;7.10;;;;;;;15.45;84.91;99688.47;4485106;32;34285;-76
2022/10/01 05:43:11;;;;;;;11.60;7.82;;;;;;;15.28;87.50;99688.84;4485257;32;34288;-76
2022/10/01 05:45:39;;;;;;;9.63;6.97;;;;;;;15.13;87.24;99692.47;4485394;32;33238;-78
2022/10/01 05:48:08;;;;;;;11.93;8.07;;;;;;;15.11;88.82;99698.19;4484750;32;34686;-79
2022/10/01 05:50:41;;;;;;;10.27;7.50;;;;;;;15.38;87.12;99694.25;4484256;32;33960;-79
2022/10/01 05:53:09;;;;;;;12.18;7.80;;;;;;;15.89;83.42;99696.66;4484057;32;33553;-74
2022/10/01 05:55:37;;;;;;;11.15;7.65;;;;;;;15.51;85.91;99699.09;4484796;32;33525;-78
2022/10/01 05:58:06;;;;;;;12.60;8.05;;;;;;;14.71;90.36;99680.87;4484346;32;33992;-74
2022/10/01 06:00:34;;;;;;;11.52;8.20;;;;;;;14.91;91.13;99662.78;4483979;32;34202;-74
2022/10/01 06:03:03;;;;;;;11.48;8.07;;;;;;;15.06;89.26;99659.16;4485167;32;33747;-75
2022/10/01 06:05:32;;;;;;;14.27;9.05;;;;;;;15.47;86.30;99653.47;4485775;32;33163;-75
2022/10/01 06:08:00;;;;;;;11.77;8.13;;;;;;;15.53;85.89;99660.53;4485065;32;33927;-76
2022/10/01 06:10:29;;;;;;;12.90;8.73;;;;;;;15.14;88.51;99656.66;4485095;32;33811;-75
2022/10/01 06:13:04;;;;;;;13.38;9.23;;;;;;;15.07;90.00;99638.94;4485447;32;34050;-74
2022/10/01 06:15:36;;;;;;;13.13;8.07;;;;;;;15.49;86.65;99638.41;4485114;32;34126;-74
2022/10/01 06:18:06;;;;;;;12.90;8.85;;;;;;;15.47;86.29;99642.53;4485446;32;33679;-75
2022/10/01 06:20:34;;;;;;;11.73;8.25;;;;;;;15.52;86.43;99634.28;4485148;32;34160;-79
2022/10/01 06:23:04;;;;;;;12.65;7.82;;;;;;;15.39;86.72;99628.34;4484111;32;33616;-75
2022/10/01 06:25:33;;;;;;;12.75;8.30;;;;;;;15.47;86.87;99637.06;4485027;32;34261;-74
2022/10/01 06:28:01;;;;;;;12.40;7.70;;;;;;;15.77;85.66;99655.19;4483696;32;34085;-74
2022/10/01 06:30:30;;;;;;;12.50;8.75;;;;;;;15.57;87.26;99670.63;4484966;32;34743;-79
2022/10/01 06:33:01;;;;;;;14.43;9.32;;;;;;;15.97;84.62;99685.12;4481701;32;33954;-73
2022/10/01 06:35:30;;;;;;;10.60;7.62;;;;;;;15.94;84.31;99671.22;4481186;32;33039;-78
2022/10/01 06:37:58;;;;;;;10.18;7.18;;;;;;;15.70;87.12;99671.06;4484486;32;34511;-73
2022/10/01 06:40:25;;;;;;;12.07;8.52;;;;;;;15.31;89.38;99667.25;4481751;32;34267;-73
2022/10/01 06:42:53;;;;;;;11.48;8.25;;;;;;;15.26;90.73;99664.50;4467518;32;33544;-77
2022/10/01 06:45:27;;;;;;;12.48;8.02;;;;;;;15.16;91.86;99672.75;4469140;32;34393;-72
2022/10/01 06:47:56;;;;;;;10.60;7.40;;;;;;;15.33;90.82;99669.66;4484417;32;33069;-75
2022/10/01 06:50:24;;;;;;;11.07;7.78;;;;;;;15.91;87.01;99677.25;4484189;32;33976;-74
2022/10/01 06:52:52;;;;;;;10.48;7.55;;;;;;;16.22;85.18;99683.28;4484839;32;34232;-73
2022/10/01 06:55:23;;;;;;;11.25;8.13;;;;;;;16.24;85.31;99685.72;4483620;32;33828;-75
2022/10/01 06:57:57;;;;;;;10.75;7.95;;;;;;;15.67;88.60;99683.41;4484730;32;34751;-80
2022/10/01 07:00:26;;;;;;;11.12;7.87;;;;;;;15.37;91.78;99670.75;4484394;32;34170;-74
2022/10/01 07:02:57;;;;;;;10.80;7.37;;;;;;;15.91;87.71;99669.03;4484197;32;34592;-73
2022/10/01 07:05:24;;;;;;;10.93;7.50;;;;;;;15.92;87.56;99665.22;4484780;32;33337;-78
2022/10/01 07:07:52;;;;;;;11.52;8.18;;;;;;;16.46;84.27;99669.62;4482133;32;34685;-76
2022/10/01 07:10:20;;;;;;;10.77;7.72;;;;;;;16.10;86.52;99664.50;4484130;32;35524;-76
2022/10/01 07:12:49;;;;;;;11.82;7.85;;;;;;;16.35;84.79;99662.62;4481661;32;33762;-76
2022/10/01 07:15:18;;;;;;;10.68;8.05;;;;;;;16.04;86.92;99646.47;4484313;32;33308;-80
2022/10/01 07:17:49;;;;;;;12.10;8.18;;;;;;;16.11;86.27;99648.88;4483289;32;33704;-75
2022/10/01 07:20:20;;;;;;;13.50;8.63;;;;;;;15.90;88.09;99648.25;4483086;32;35023;-81
2022/10/01 07:22:48;;;;;;;12.90;8.75;;;;;;;15.62;89.46;99647.91;4484919;32;34600;-76
2022/10/01 07:25:16;;;;;;;12.15;8.70;;;;;;;15.05;94.26;99649.31;4484050;32;33564;-79
2022/10/01 07:27:43;;;;;;;14.00;8.40;;;;;;;15.25;93.99;99651.97;4482516;32;35233;-72
2022/10/01 07:30:11;;;;;;;14.60;9.25;;;;;;;15.49;92.26;99654.00;4484219;32;34631;-73
2022/10/01 07:32:42;;;;;;;13.80;8.90;;;;;;;15.62;91.41;99649.81;4483911;32;34591;-74
2022/10/01 07:35:10;;;;;;;15.32;9.23;;;;;;;15.31;93.89;99644.53;4484302;32;33728;-77
2022/10/01 07:37:37;;;;;;;13.07;8.77;;;;;;;15.82;90.24;99635.19;4483826;32;33903;-72
2022/10/01 07:40:05;;;;;;;13.85;9.30;;;;;;;15.87;88.51;99624.19;4483980;32;34788;-73
2022/10/01 07:42:34;;;;;;;15.50;10.15;;;;;;;15.99;88.83;99630.13;4484554;32;34560;-73
2022/10/01 07:45:05;;;;;;;14.45;9.82;;;;;;;15.91;89.28;99631.53;4484382;32;33078;-74
2022/10/01 07:47:33;;;;;;;12.93;9.13;;;;;;;16.19;87.18;99640.03;4483801;32;34654;-72
2022/10/01 07:50:00;;;;;;;12.75;9.10;;;;;;;15.98;88.45;99636.69;4484021;32;34786;-72
2022/10/01 07:52:28;;;;;;;13.82;9.43;;;;;;;16.67;85.23;99647.47;4484350;32;33839;-73
2022/10/01 07:54:55;;;;;;;14.50;9.43;;;;;;;16.28;87.31;99641.03;4484907;32;33548;-72
2022/10/01 07:57:22;;;;;;;14.18;9.73;;;;;;;16.35;85.84;99644.28;4484261;32;33878;-72
2022/10/01 07:59:50;;;;;;;14.45;9.75;;;;;;;16.75;83.61;99647.66;4483843;32;35134;-72
2022/10/01 08:02:22;;;;;;;15.50;10.50;;;;;;;16.42;86.42;99649.41;4483699;32;34834;-72
2022/10/01 08:07:36;;;;;;;15.20;10.48;;;;;;;16.31;87.62;99640.47;4484131;32;33622;-72
2022/10/01 08:10:04;;;;;;;16.45;10.85;;;;;;;16.22;88.79;99644.97;4483671;32;34198;-73
2022/10/01 08:12:31;;;;;;;14.98;10.68;;;;;;;16.52;86.82;99640.25;4484359;32;33736;-75
2022/10/01 08:15:01;;;;;;;15.88;10.00;;;;;;;16.53;86.87;99644.63;4484355;32;33850;-74
2022/10/01 08:17:29;;;;;;;12.35;9.63;;;;;;;17.04;84.25;99646.78;4484010;32;33874;-74
2022/10/01 08:19:56;;;;;;;17.33;10.57;;;;;;;16.88;84.12;99634.38;4484108;32;34970;-73
2022/10/01 08:22:23;;;;;;;15.50;10.45;;;;;;;16.63;84.36;99647.25;4484425;32;34548;-72
2022/10/01 08:24:51;;;;;;;16.25;11.10;;;;;;;16.67;85.49;99642.81;4484382;32;33919;-72
2022/10/01 08:27:18;;;;;;;15.75;10.63;;;;;;;16.76;84.71;99641.09;4484083;32;33740;-74
2022/10/01 08:29:47;;;;;;;16.77;10.90;;;;;;;16.25;87.92;99627.94;4483890;32;34310;-72
2022/10/01 08:32:14;;;;;;;17.10;10.80;;;;;;;16.66;86.31;99618.47;4483999;32;33788;-73
2022/10/01 08:34:41;;;;;;;14.80;9.73;;;;;;;16.85;84.58;99604.84;4484500;32;33217;-74
2022/10/01 08:37:09;;;;;;;15.07;10.15;;;;;;;17.31;81.92;99615.97;4482980;32;34004;-74
2022/10/01 08:39:36;;;;;;;17.17;11.43;;;;;;;17.67;79.85;99615.44;4480440;32;35086;-72
2022/10/01 08:42:09;;;;;;;19.25;11.98;;;;;;;17.59;79.75;99610.63;4484067;32;33405;-75
2022/10/01 08:44:41;;;;;;;15.27;10.60;;;;;;;16.99;83.90;99603.00;4482683;32;33567;-74
2022/10/01 08:47:30;;;;;;;17.85;11.23;;;;;;;16.93;84.51;99607.75;4483952;32;35127;-72
2022/10/01 08:50:12;;;;;;;17.50;11.35;;;;;;;16.95;83.73;99600.03;4485641;32;34287;-75
2022/10/01 08:53:00;;;;;;;18.25;11.48;;;;;;;17.05;83.63;99592.78;4484459;32;33784;-73
2022/10/01 08:55:35;;;;;;;17.17;11.18;;;;;;;17.20;81.95;99598.84;4484552;32;33599;-73
2022/10/01 08:58:05;;;;;;;17.62;12.20;;;;;;;17.00;84.04;99605.44;4483981;32;34543;-74
2022/10/01 09:00:34;;;;;;;18.58;12.37;;;;;;;17.04;84.45;99596.63;4484299;32;35095;-74
2022/10/01 09:03:08;;;;;;;17.92;11.85;;;;;;;17.34;83.61;99600.84;4484457;32;34580;-76
2022/10/01 09:05:50;;;;;;;16.67;11.27;;;;;;;17.01;85.72;99598.03;4484304;32;33501;-75
2022/10/01 09:08:42;;;;;;;13.65;9.70;;;;;;;17.36;84.43;99601.38;4484815;32;34463;-74
2022/10/01 09:11:28;;;;;;;18.15;12.15;;;;;;;17.59;83.51;99597.72;4485234;32;34946;-73
2022/10/01 09:14:14;;;;;;;22.45;12.65;;;;;;;17.51;84.40;99606.63;4484464;32;33931;-81
2022/10/01 09:17:00;;;;;;;18.02;12.00;;;;;;;17.07;87.68;99610.56;4484129;32;32853;-73
2022/10/01 09:19:42;;;;;;;18.30;11.18;;;;;;;17.76;84.15;99599.09;4485233;32;34068;-76
2022/10/01 09:22:24;;;;;;;15.30;10.07;;;;;;;18.02;82.76;99603.06;4484305;32;35707;-73
2022/10/01 09:25:07;;;;;;;16.58;10.48;;;;;;;17.95;82.94;99593.59;4484979;32;34610;-73
2022/10/01 09:27:36;;;;;;;15.70;11.15;;;;;;;18.47;81.90;99598.94;4477708;32;33440;-74
2022/10/01 09:30:10;;;;;;;16.00;10.50;;;;;;;18.84;78.76;99589.69;4469552;32;33929;-77
2022/10/01 09:32:43;;;;;;;19.17;12.73;;;;;;;18.15;79.15;99586.91;4469692;32;34260;-73
2022/10/01 09:35:26;;;;;;;20.08;11.52;;;;;;;18.33;80.75;99577.75;4468513;32;34524;-72
2022/10/01 09:37:56;;;;;;;16.60;11.48;;;;;;;18.89;78.14;99578.56;4467439;32;33494;-76
2022/10/01 09:40:37;;;;;;;20.20;13.43;;;;;;;18.97;78.11;99588.84;4468529;32;33745;-75
2022/10/01 09:43:07;;;;;;;17.12;11.15;;;;;;;18.94;81.10;99581.22;4468485;32;33953;-75
2022/10/01 09:45:36;;;;;;;16.00;10.95;;;;;;;19.31;77.92;99589.44;4469360;32;34578;-76
2022/10/01 09:48:22;;;;;;;19.08;12.75;;;;;;;19.58;74.87;99577.53;4468978;32;34595;-72
2022/10/01 09:50:57;;;;;;;17.80;11.45;;;;;;;19.42;75.32;99580.66;4472833;32;33622;-72
2022/10/01 09:53:31;;;;;;;19.58;13.07;;;;;;;18.96;78.35;99578.97;4483341;32;34809;-78
2022/10/01 09:56:04;;;;;;;18.65;12.77;;;;;;;18.96;79.16;99572.66;4484287;32;33827;-77
2022/10/01 09:58:34;;;;;;;17.33;12.50;;;;;;;18.84;77.68;99570.44;4482560;32;33174;-77
2022/10/01 10:01:01;;;;;;;16.12;10.40;;;;;;;19.16;77.16;99571.41;4483866;32;34754;-77
2022/10/01 10:03:30;;;;;;;19.12;11.95;;;;;;;19.02;78.26;99563.16;4485254;32;34983;-86
2022/10/01 10:06:01;;;;;;;14.45;10.48;;;;;;;19.36;76.40;99568.16;4485200;32;34438;-76
2022/10/01 10:08:31;;;;;;;18.62;12.45;;;;;;;19.68;74.07;99558.81;4483094;32;33609;-77
2022/10/01 10:11:04;;;;;;;17.50;11.43;;;;;;;19.93;73.22;99558.50;4483892;32;34634;-77
2022/10/01 10:13:37;;;;;;;15.03;10.63;;;;;;;19.82;73.97;99552.47;4484981;32;34147;-76
2022/10/01 10:16:09;;;;;;;15.55;10.32;;;;;;;19.96;73.17;99561.44;4484611;32;34600;-77
2022/10/01 10:18:38;;;;;;;16.27;11.43;;;;;;;20.14;71.59;99558.78;4484742;32;33628;-77
2022/10/01 10:21:14;;;;;;;14.77;10.90;;;;;;;20.35;72.38;99561.78;4483809;32;33689;-77
2022/10/01 10:23:50;;;;;;;10.63;8.45;;;;;;;20.56;72.93;99557.31;4482998;32;34951;-79
2022/10/01 10:26:39;;;;;;;13.35;9.05;;;;;;;20.64;72.18;99553.78;4483962;32;33792;-78
2022/10/01 10:29:08;;;;;;;11.02;8.07;;;;;;;20.75;71.14;99559.81;4483582;32;34107;-77
2022/10/01 10:31:45;;;;;;;13.07;8.55;;;;;;;20.71;71.54;99549.75;4483730;32;33846;-79
2022/10/01 10:34:15;;;;;;;12.15;8.77;;;;;;;20.70;69.81;99548.94;4483845;32;34190;-77
2022/10/01 10:36:44;;;;;;;10.73;8.10;;;;;;;20.54;73.46;99540.28;4483735;32;34089;-79
2022/10/01 10:39:24;;;;;;;9.57;6.90;;;;;;;20.69;71.49;99539.03;4484843;32;33493;-79
2022/10/01 10:41:54;;;;;;;9.93;6.78;;;;;;;20.82;68.44;99532.59;4484088;32;34525;-79
2022/10/01 10:44:24;;;;;;;7.45;5.70;;;;;;;20.68;70.54;99531.91;4483777;32;35133;-79
2022/10/01 10:46:52;;;;;;;7.80;5.80;;;;;;;20.49;70.89;99532.16;4484972;32;33879;-77
2022/10/01 10:49:28;;;;;;;7.28;5.22;;;;;;;20.49;70.39;99530.19;4485133;32;34248;-83
2022/10/01 10:51:59;;;;;;;7.15;4.53;;;;;;;20.50;69.04;99525.53;4483766;32;34174;-78
2022/10/01 10:54:32;;;;;;;7.37;5.30;;;;;;;20.08;70.88;99517.59;4483807;32;34283;-84
2022/10/01 10:57:27;;;;;;;6.53;4.97;;;;;;;20.38;69.94;99523.38;4484902;32;33760;-80
2022/10/01 11:00:00;;;;;;;7.22;5.10;;;;;;;20.43;70.21;99514.97;4484777;32;34045;-79
2022/10/01 11:02:29;;;;;;;6.72;4.95;;;;;;;20.39;70.85;99513.16;4485037;32;34542;-80
2022/10/01 11:05:02;;;;;;;5.43;4.18;;;;;;;19.99;73.19;99499.41;4483371;32;34300;-79
2022/10/01 11:07:30;;;;;;;8.90;5.20;;;;;;;20.28;72.05;99505.22;4484873;32;33956;-79
2022/10/01 11:10:17;;;;;;;6.55;4.53;;;;;;;20.35;70.29;99498.41;4484314;32;33587;-79
2022/10/01 11:13:25;;;;;;;5.30;4.00;;;;;;;20.05;73.18;99484.38;4484644;32;33819;-79
2022/10/01 11:16:16;;;;;;;5.85;4.10;;;;;;;20.68;72.72;99474.81;4484625;32;34062;-80
2022/10/01 11:19:01;;;;;;;6.93;4.25;;;;;;;21.03;69.85;99471.25;4484679;32;33983;-81
2022/10/01 11:21:47;;;;;;;6.07;3.95;;;;;;;21.26;69.20;99460.87;4484815;32;33514;-80
2022/10/01 11:24:42;;;;;;;5.35;3.87;;;;;;;21.26;67.85;99458.09;4484857;32;33748;-79
2022/10/01 11:27:15;;;;;;;5.53;4.07;;;;;;;21.52;67.38;99454.50;4478860;32;34008;-82
2022/10/01 11:30:17;;;;;;;7.18;4.68;;;;;;;21.64;68.30;99451.84;4468682;32;33693;-78
2022/10/01 11:32:54;;;;;;;5.90;4.53;;;;;;;21.77;66.39;99442.56;4467500;32;33461;-82
2022/10/01 11:35:28;;;;;;;5.20;3.87;;;;;;;21.73;67.94;99438.84;4468944;32;34015;-83
2022/10/01 11:38:18;;;;;;;6.80;4.17;;;;;;;22.28;65.92;99437.13;4467625;32;34076;-84
2022/10/01 11:40:49;;;;;;;5.70;3.75;;;;;;;22.29;64.58;99428.50;4469130;32;33410;-80
2022/10/01 11:43:21;;;;;;;6.22;4.00;;;;;;;22.24;64.58;99430.66;4467703;32;33670;-81
2022/10/01 11:45:55;;;;;;;5.47;3.70;;;;;;;22.27;65.23;99422.50;4468562;32;34840;-82